createdAt,value
2018-08-17T08:47:27.170Z,55.20
2018-08-17T08:50:30.264Z,56.10
2018-08-17T08:53:33.359Z,56.10
2018-08-17T08:56:36.456Z,56.10
2018-08-17T08:59:39.544Z,56.30
2018-08-17T09:02:42.593Z,56.40
2018-08-17T09:05:45.687Z,55.60
2018-08-17T09:08:48.750Z,55.90
2018-08-17T09:11:51.838Z,56.70
2018-08-17T09:14:54.914Z,57.10
2018-08-17T09:17:57.999Z,57.70
2018-08-17T09:21:01.172Z,59.20
2018-08-17T09:24:04.269Z,59.70
2018-08-17T09:27:07.438Z,58.90
2018-08-17T09:30:12.015Z,58.30
2018-08-17T09:33:15.038Z,58.60
2018-08-17T09:36:18.136Z,59.10
2018-08-17T09:39:21.238Z,59.50
2018-08-17T09:42:24.320Z,60.80
2018-08-17T09:45:27.441Z,61.90
2018-08-17T09:48:30.497Z,62.20
2018-08-17T09:51:36.269Z,62.90
2018-08-17T09:54:39.355Z,62.60
2018-08-17T09:57:42.592Z,62.00
2018-08-17T10:00:50.944Z,61.60
2018-08-17T10:03:59.580Z,61.70
2018-08-17T10:07:08.036Z,61.60
2018-08-17T10:10:16.410Z,61.70
2018-08-17T10:13:19.481Z,62.40
2018-08-17T10:16:22.556Z,61.70
2018-08-17T10:19:25.656Z,61.90
2018-08-17T10:22:28.745Z,62.00
2018-08-17T10:25:31.833Z,61.80
2018-08-17T10:28:34.914Z,61.70
2018-08-17T10:31:37.994Z,61.20
2018-08-17T10:34:41.087Z,60.30
2018-08-17T10:37:44.157Z,61.10
2018-08-17T10:40:47.319Z,60.70
2018-08-17T10:43:50.357Z,60.70
2018-08-17T10:46:53.437Z,60.00
2018-08-17T10:49:56.678Z,60.60
2018-08-17T10:53:01.074Z,60.00
2018-08-17T10:56:04.569Z,59.40
2018-08-17T10:59:07.771Z,60.10
2018-08-17T11:02:11.050Z,59.50
2018-08-17T11:05:15.637Z,59.10
2018-08-17T11:08:18.924Z,59.50
2018-08-17T11:11:22.236Z,59.30
2018-08-17T11:14:25.476Z,59.50
2018-08-17T11:17:28.818Z,59.10
2018-08-17T11:20:32.142Z,59.50
2018-08-17T11:23:35.334Z,60.40
2018-08-17T11:26:38.556Z,60.80
2018-08-17T11:29:41.815Z,59.30
2018-08-17T11:32:45.059Z,59.30
2018-08-17T11:35:48.306Z,59.20
2018-08-17T11:38:51.599Z,58.40
2018-08-17T11:41:54.927Z,58.40
2018-08-17T11:44:58.067Z,58.10
2018-08-17T11:48:01.494Z,58.80
2018-08-17T11:51:04.797Z,58.10
2018-08-17T11:54:10.142Z,58.50
2018-08-17T11:57:13.362Z,58.30
2018-08-17T12:00:16.698Z,58.30
2018-08-17T12:03:19.916Z,58.00
2018-08-17T12:06:23.154Z,58.00
2018-08-17T12:09:26.518Z,57.90
2018-08-17T12:12:30.569Z,57.80
2018-08-17T12:15:37.121Z,58.10
2018-08-17T12:18:40.413Z,58.90
2018-08-17T12:21:43.689Z,58.50
2018-08-17T12:24:46.956Z,58.20
2018-08-17T12:27:58.083Z,58.20
2018-08-17T12:31:01.192Z,57.90
2018-08-17T12:34:04.250Z,57.90
2018-08-17T12:37:07.389Z,58.70
2018-08-17T12:40:10.567Z,57.70
2018-08-17T12:43:14.649Z,57.00
2018-08-17T12:46:17.727Z,57.00
2018-08-17T12:49:20.830Z,57.00
2018-08-17T12:52:24.001Z,57.10
2018-08-17T12:55:27.009Z,56.40
2018-08-17T12:58:30.104Z,56.00
2018-08-17T13:01:33.205Z,55.50
2018-08-17T13:04:36.290Z,55.60
2018-08-17T13:07:39.437Z,55.80
2018-08-17T13:10:42.534Z,56.00
2018-08-17T13:13:45.554Z,55.70
2018-08-17T13:16:48.640Z,55.80
2018-08-17T13:19:51.714Z,56.10
2018-08-17T13:22:54.856Z,56.20
2018-08-17T13:25:57.852Z,55.30
2018-08-17T13:29:01.147Z,55.70
2018-08-17T13:32:04.221Z,55.40
2018-08-17T13:35:07.312Z,56.00
2018-08-17T13:38:10.383Z,55.70
2018-08-17T13:41:13.429Z,55.80
2018-08-17T13:44:16.542Z,55.60
2018-08-17T13:47:19.613Z,55.60
2018-08-17T13:50:22.681Z,55.80
2018-08-17T13:53:25.793Z,55.40
2018-08-17T13:56:28.894Z,55.10
2018-08-17T13:59:31.976Z,54.80
2018-08-17T14:02:35.094Z,54.60
2018-08-17T14:05:38.165Z,54.90
2018-08-17T14:08:41.267Z,55.40
2018-08-17T14:11:44.373Z,55.40
2018-08-17T14:14:47.449Z,54.70
2018-08-17T14:17:50.594Z,55.10
2018-08-17T14:20:53.657Z,55.50
2018-08-17T14:23:56.744Z,55.20
2018-08-17T14:26:59.827Z,55.10
2018-08-17T14:30:03.016Z,55.10
2018-08-17T14:33:06.290Z,54.80
2018-08-17T14:36:16.079Z,54.60
2018-08-17T14:39:19.522Z,55.00
2018-08-17T14:42:22.703Z,54.50
2018-08-17T14:45:25.916Z,55.50
2018-08-17T14:48:29.366Z,55.10
2018-08-17T14:51:32.609Z,55.50
2018-08-17T14:54:35.766Z,54.00
2018-08-17T14:57:39.000Z,54.80
2018-08-17T15:00:42.366Z,54.90
2018-08-17T15:03:45.588Z,55.60
2018-08-17T15:06:48.790Z,54.90
2018-08-17T15:09:52.094Z,55.20
2018-08-17T15:12:55.444Z,54.60
2018-08-17T15:15:58.703Z,54.80
2018-08-17T15:19:02.006Z,55.00
2018-08-17T15:22:05.195Z,55.80
2018-08-17T15:25:08.480Z,55.70
2018-08-17T15:28:11.724Z,56.50
2018-08-17T15:31:15.042Z,57.00
2018-08-17T15:34:18.302Z,57.30
2018-08-17T15:37:21.494Z,58.10
2018-08-17T15:40:24.666Z,58.80
2018-08-17T15:43:34.210Z,59.60
2018-08-17T15:46:37.443Z,60.40
2018-08-17T15:49:41.627Z,60.80
2018-08-17T15:52:45.079Z,61.40
2018-08-17T15:55:48.386Z,61.70
2018-08-17T15:58:51.685Z,62.00
2018-08-17T16:01:54.917Z,61.90
2018-08-17T16:04:58.125Z,62.20
2018-08-17T16:08:01.522Z,62.30
2018-08-17T16:11:04.776Z,63.20
2018-08-17T16:14:08.081Z,64.10
2018-08-17T16:17:11.218Z,65.00
2018-08-17T16:20:14.519Z,65.60
2018-08-17T16:23:17.752Z,66.20
2018-08-17T16:26:21.030Z,67.00
2018-08-17T16:29:24.423Z,67.40
2018-08-17T16:32:27.713Z,68.10
2018-08-17T16:35:30.982Z,68.60
2018-08-17T16:38:36.762Z,69.40
2018-08-17T16:41:40.046Z,70.20
2018-08-17T16:44:43.336Z,71.00
2018-08-17T16:47:46.578Z,71.40
2018-08-17T16:50:49.770Z,72.10
2018-08-17T16:53:53.047Z,72.70
2018-08-17T16:56:56.371Z,73.30
2018-08-17T17:00:00.554Z,73.50
2018-08-17T17:03:03.869Z,73.80
2018-08-17T17:06:07.112Z,74.10
2018-08-17T17:09:10.458Z,74.50
2018-08-17T17:12:21.090Z,74.90
2018-08-17T17:15:24.313Z,75.30
2018-08-17T17:18:33.634Z,75.60
2018-08-17T17:21:36.930Z,75.80
2018-08-17T17:24:40.205Z,75.90
2018-08-17T17:27:43.457Z,76.20
2018-08-17T17:30:53.617Z,76.40
2018-08-17T17:33:56.867Z,76.80
2018-08-17T17:37:00.370Z,76.70
2018-08-17T17:40:03.875Z,77.30
2018-08-17T17:43:07.478Z,77.60
2018-08-17T17:46:10.725Z,77.90
2018-08-17T17:49:14.114Z,78.50
2018-08-17T17:52:17.377Z,78.60
2018-08-17T17:55:20.574Z,78.90
2018-08-17T17:58:23.819Z,79.20
2018-08-17T18:01:27.002Z,79.50
2018-08-17T18:04:31.405Z,79.50
2018-08-17T18:07:49.900Z,79.70
2018-08-17T18:10:53.193Z,79.80
2018-08-17T18:13:56.413Z,80.30
2018-08-17T18:17:02.870Z,80.60
2018-08-17T18:20:06.027Z,80.90
2018-08-17T18:23:09.334Z,81.10
2018-08-17T18:26:16.942Z,81.30
2018-08-17T18:29:20.318Z,81.70
2018-08-17T18:32:23.570Z,82.00
2018-08-17T18:35:26.778Z,82.20
2018-08-17T18:38:29.998Z,82.50
2018-08-17T18:41:33.250Z,82.80
2018-08-17T18:44:36.545Z,83.30
2018-08-17T18:47:39.814Z,83.50
2018-08-17T18:50:43.067Z,83.70
2018-08-17T18:53:46.365Z,84.00
2018-08-17T18:56:49.785Z,84.20
2018-08-17T18:59:53.107Z,84.40
2018-08-17T19:02:57.266Z,84.40
2018-08-17T19:06:00.466Z,84.40
2018-08-17T19:09:04.422Z,84.40
2018-08-17T19:12:07.626Z,84.80
2018-08-17T19:15:13.238Z,85.00
2018-08-17T19:18:16.307Z,85.30
2018-08-17T19:21:19.369Z,85.40
2018-08-17T19:24:22.413Z,85.50
2018-08-17T19:27:33.984Z,85.80
2018-08-17T19:30:37.058Z,86.10
2018-08-17T19:33:40.122Z,86.00
2018-08-17T19:36:43.228Z,86.20
2018-08-17T19:39:47.137Z,86.20
2018-08-17T19:42:50.232Z,86.10
2018-08-17T19:45:53.395Z,86.20
2018-08-17T19:48:56.458Z,86.20
2018-08-17T19:51:59.522Z,86.30
2018-08-17T19:55:02.561Z,86.40
2018-08-17T19:58:05.858Z,86.40
2018-08-17T20:01:08.934Z,86.70
2018-08-17T20:04:12.017Z,86.80
2018-08-17T20:07:15.092Z,87.00
2018-08-17T20:10:18.165Z,86.90
2018-08-17T20:13:21.269Z,87.00
2018-08-17T20:16:28.381Z,87.10
2018-08-17T20:19:36.865Z,87.60
2018-08-17T20:22:39.961Z,87.90
2018-08-17T20:25:43.052Z,88.30
2018-08-17T20:28:52.701Z,88.60
2018-08-17T20:31:55.793Z,88.90
2018-08-17T20:34:58.851Z,89.30
2018-08-17T20:41:34.069Z,89.90
2018-08-17T20:44:37.184Z,90.00
2018-08-17T20:47:41.160Z,90.10
2018-08-17T20:50:44.228Z,90.20
2018-08-17T20:53:47.990Z,90.80
2018-08-17T20:56:51.087Z,90.50
2018-08-17T20:59:54.154Z,90.60
2018-08-17T21:02:57.252Z,90.70
2018-08-17T21:06:00.366Z,91.00
2018-08-17T21:09:04.513Z,91.10
2018-08-17T21:12:07.598Z,91.20
2018-08-17T21:15:10.673Z,91.30
2018-08-17T21:18:13.739Z,91.40
2018-08-17T21:21:16.817Z,91.40
2018-08-17T21:24:19.877Z,91.50
2018-08-17T21:27:22.956Z,91.60
2018-08-17T21:30:26.044Z,91.60
2018-08-17T21:33:29.106Z,91.60
2018-08-17T21:36:32.169Z,91.60
2018-08-17T21:39:35.265Z,91.60
2018-08-17T21:42:38.384Z,91.60
2018-08-17T21:45:44.625Z,91.80
2018-08-17T21:48:47.709Z,91.80
2018-08-17T21:51:55.705Z,92.00
2018-08-17T21:54:58.775Z,92.00
2018-08-17T21:58:01.853Z,91.90
2018-08-17T22:01:04.921Z,92.00
2018-08-17T22:04:08.027Z,92.00
2018-08-17T22:07:28.808Z,92.00
2018-08-17T22:10:31.887Z,91.90
2018-08-17T22:13:35.921Z,91.90
2018-08-17T22:16:39.006Z,91.90
2018-08-17T22:19:42.981Z,91.90
2018-08-17T22:22:46.045Z,91.90
2018-08-17T22:25:49.125Z,92.00
2018-08-17T22:28:52.234Z,92.10
2018-08-17T22:31:55.336Z,92.10
2018-08-17T22:34:58.421Z,92.10
2018-08-17T22:38:01.519Z,92.20
2018-08-17T22:41:04.610Z,92.30
2018-08-17T22:44:11.942Z,92.30
2018-08-17T22:47:16.836Z,92.30
2018-08-17T22:50:19.908Z,92.30
2018-08-17T22:53:22.980Z,92.10
2018-08-17T22:56:27.270Z,92.20
2018-08-17T22:59:30.349Z,92.10
2018-08-17T23:02:33.448Z,92.10
2018-08-17T23:05:36.666Z,92.10
2018-08-17T23:08:39.757Z,92.10
2018-08-17T23:11:42.845Z,92.10
2018-08-17T23:14:45.984Z,92.10
2018-08-17T23:17:54.404Z,92.20
2018-08-17T23:20:57.488Z,92.40
2018-08-17T23:24:00.658Z,92.30
2018-08-17T23:27:03.660Z,92.30
2018-08-17T23:30:07.053Z,92.30
2018-08-17T23:33:10.324Z,92.30
2018-08-17T23:36:13.401Z,92.30
2018-08-17T23:39:16.497Z,92.30
2018-08-17T23:42:19.565Z,92.30
2018-08-17T23:45:22.636Z,92.30
2018-08-17T23:48:25.732Z,92.30
2018-08-17T23:51:28.809Z,92.40
2018-08-17T23:54:31.923Z,92.40
2018-08-17T23:57:35.109Z,92.40
